sensor_id;sensor_type;location;lat;lon;timestamp;P1;durP1;ratioP1;P2;durP2;ratioP2
56820;SDS011;42702;50.178;20.992;2022-07-17T00:00:54;6.30;;;3.30;;
56820;SDS011;42702;50.178;20.992;2022-07-17T00:03:23;5.00;;;3.00;;
56820;SDS011;42702;50.178;20.992;2022-07-17T00:05:51;6.00;;;3.40;;
56820;SDS011;42702;50.178;20.992;2022-07-17T00:08:19;3.80;;;2.80;;
56820;SDS011;42702;50.178;20.992;2022-07-17T00:10:48;4.10;;;2.60;;
56820;SDS011;42702;50.178;20.992;2022-07-17T00:13:16;3.30;;;2.20;;
56820;SDS011;42702;50.178;20.992;2022-07-17T00:15:45;4.10;;;2.80;;
56820;SDS011;42702;50.178;20.992;2022-07-17T00:18:13;6.70;;;3.00;;
56820;SDS011;42702;50.178;20.992;2022-07-17T00:20:41;4.70;;;3.20;;
56820;SDS011;42702;50.178;20.992;2022-07-17T00:23:11;6.80;;;3.20;;
56820;SDS011;42702;50.178;20.992;2022-07-17T00:25:39;5.30;;;3.00;;
56820;SDS011;42702;50.178;20.992;2022-07-17T00:28:08;4.50;;;2.60;;
56820;SDS011;42702;50.178;20.992;2022-07-17T00:30:36;7.20;;;2.40;;
56820;SDS011;42702;50.178;20.992;2022-07-17T00:33:06;4.80;;;3.00;;
56820;SDS011;42702;50.178;20.992;2022-07-17T00:35:34;7.40;;;3.30;;
56820;SDS011;42702;50.178;20.992;2022-07-17T00:38:02;4.90;;;3.10;;
56820;SDS011;42702;50.178;20.992;2022-07-17T00:40:31;7.00;;;3.20;;
56820;SDS011;42702;50.178;20.992;2022-07-17T00:42:59;5.20;;;2.90;;
56820;SDS011;42702;50.178;20.992;2022-07-17T00:45:27;3.10;;;2.20;;
56820;SDS011;42702;50.178;20.992;2022-07-17T00:50:25;4.30;;;3.30;;
56820;SDS011;42702;50.178;20.992;2022-07-17T00:52:56;5.90;;;3.20;;
56820;SDS011;42702;50.178;20.992;2022-07-17T00:55:25;4.60;;;2.90;;
56820;SDS011;42702;50.178;20.992;2022-07-17T00:58:11;4.30;;;3.00;;
56820;SDS011;42702;50.178;20.992;2022-07-17T01:00:45;7.00;;;2.50;;
56820;SDS011;42702;50.178;20.992;2022-07-17T01:03:16;3.80;;;2.80;;
56820;SDS011;42702;50.178;20.992;2022-07-17T01:05:46;5.80;;;3.10;;
56820;SDS011;42702;50.178;20.992;2022-07-17T01:08:14;4.90;;;3.40;;
56820;SDS011;42702;50.178;20.992;2022-07-17T01:10:43;5.40;;;3.20;;
56820;SDS011;42702;50.178;20.992;2022-07-17T01:13:12;4.10;;;3.30;;
56820;SDS011;42702;50.178;20.992;2022-07-17T01:15:41;4.20;;;3.00;;
56820;SDS011;42702;50.178;20.992;2022-07-17T01:18:10;5.20;;;3.20;;
56820;SDS011;42702;50.178;20.992;2022-07-17T01:20:42;4.60;;;3.20;;
56820;SDS011;42702;50.178;20.992;2022-07-17T01:23:13;4.50;;;2.10;;
56820;SDS011;42702;50.178;20.992;2022-07-17T01:25:43;5.60;;;3.40;;
56820;SDS011;42702;50.178;20.992;2022-07-17T01:28:12;9.60;;;3.60;;
56820;SDS011;42702;50.178;20.992;2022-07-17T01:30:48;5.20;;;3.50;;
56820;SDS011;42702;50.178;20.992;2022-07-17T01:33:19;4.90;;;3.40;;
56820;SDS011;42702;50.178;20.992;2022-07-17T01:35:51;5.70;;;3.10;;
56820;SDS011;42702;50.178;20.992;2022-07-17T01:38:20;5.10;;;3.20;;
56820;SDS011;42702;50.178;20.992;2022-07-17T01:40:48;6.20;;;3.00;;
56820;SDS011;42702;50.178;20.992;2022-07-17T01:43:17;5.70;;;3.80;;
56820;SDS011;42702;50.178;20.992;2022-07-17T01:45:46;6.30;;;3.20;;
56820;SDS011;42702;50.178;20.992;2022-07-17T01:48:24;5.30;;;3.50;;
56820;SDS011;42702;50.178;20.992;2022-07-17T01:50:53;5.30;;;3.30;;
56820;SDS011;42702;50.178;20.992;2022-07-17T01:53:22;5.20;;;4.20;;
56820;SDS011;42702;50.178;20.992;2022-07-17T01:55:50;7.50;;;3.90;;
56820;SDS011;42702;50.178;20.992;2022-07-17T01:58:19;5.80;;;3.30;;
56820;SDS011;42702;50.178;20.992;2022-07-17T02:00:47;6.50;;;3.60;;
56820;SDS011;42702;50.178;20.992;2022-07-17T02:03:15;5.90;;;4.20;;
56820;SDS011;42702;50.178;20.992;2022-07-17T02:05:43;3.90;;;3.00;;
56820;SDS011;42702;50.178;20.992;2022-07-17T02:08:12;5.50;;;3.10;;
56820;SDS011;42702;50.178;20.992;2022-07-17T02:10:40;5.10;;;3.40;;
56820;SDS011;42702;50.178;20.992;2022-07-17T02:13:08;4.70;;;3.20;;
56820;SDS011;42702;50.178;20.992;2022-07-17T02:15:36;4.70;;;3.10;;
56820;SDS011;42702;50.178;20.992;2022-07-17T02:18:05;6.10;;;3.20;;
56820;SDS011;42702;50.178;20.992;2022-07-17T02:20:33;5.10;;;3.80;;
56820;SDS011;42702;50.178;20.992;2022-07-17T02:23:02;5.10;;;3.50;;
56820;SDS011;42702;50.178;20.992;2022-07-17T02:25:30;7.70;;;4.40;;
56820;SDS011;42702;50.178;20.992;2022-07-17T02:27:59;6.00;;;3.40;;
56820;SDS011;42702;50.178;20.992;2022-07-17T02:30:27;5.10;;;3.30;;
56820;SDS011;42702;50.178;20.992;2022-07-17T02:32:55;4.50;;;3.00;;
56820;SDS011;42702;50.178;20.992;2022-07-17T02:35:23;4.40;;;3.30;;
56820;SDS011;42702;50.178;20.992;2022-07-17T02:37:52;5.20;;;3.90;;
56820;SDS011;42702;50.178;20.992;2022-07-17T02:40:20;7.90;;;3.50;;
56820;SDS011;42702;50.178;20.992;2022-07-17T02:42:48;5.50;;;3.40;;
56820;SDS011;42702;50.178;20.992;2022-07-17T02:45:16;6.70;;;3.60;;
56820;SDS011;42702;50.178;20.992;2022-07-17T02:47:49;9.30;;;3.50;;
56820;SDS011;42702;50.178;20.992;2022-07-17T02:50:18;5.00;;;2.60;;
56820;SDS011;42702;50.178;20.992;2022-07-17T02:52:47;6.60;;;3.50;;
56820;SDS011;42702;50.178;20.992;2022-07-17T02:55:17;6.30;;;3.30;;
56820;SDS011;42702;50.178;20.992;2022-07-17T02:57:46;7.50;;;3.50;;
56820;SDS011;42702;50.178;20.992;2022-07-17T03:00:17;5.80;;;3.60;;
56820;SDS011;42702;50.178;20.992;2022-07-17T03:02:46;8.10;;;4.10;;
56820;SDS011;42702;50.178;20.992;2022-07-17T03:05:15;5.20;;;3.50;;
56820;SDS011;42702;50.178;20.992;2022-07-17T03:07:45;4.30;;;3.80;;
56820;SDS011;42702;50.178;20.992;2022-07-17T03:10:14;5.60;;;3.70;;
56820;SDS011;42702;50.178;20.992;2022-07-17T03:12:42;6.60;;;4.00;;
56820;SDS011;42702;50.178;20.992;2022-07-17T03:15:11;6.00;;;3.90;;
56820;SDS011;42702;50.178;20.992;2022-07-17T03:17:40;7.50;;;3.90;;
56820;SDS011;42702;50.178;20.992;2022-07-17T03:20:10;6.20;;;3.80;;
56820;SDS011;42702;50.178;20.992;2022-07-17T03:22:38;7.70;;;3.60;;
56820;SDS011;42702;50.178;20.992;2022-07-17T03:25:07;5.50;;;3.70;;
56820;SDS011;42702;50.178;20.992;2022-07-17T03:27:36;6.60;;;4.20;;
56820;SDS011;42702;50.178;20.992;2022-07-17T03:30:06;8.20;;;3.40;;
56820;SDS011;42702;50.178;20.992;2022-07-17T03:32:35;7.10;;;3.80;;
56820;SDS011;42702;50.178;20.992;2022-07-17T03:35:03;8.80;;;4.40;;
56820;SDS011;42702;50.178;20.992;2022-07-17T03:37:32;6.60;;;3.70;;
56820;SDS011;42702;50.178;20.992;2022-07-17T03:40:00;5.50;;;3.90;;
56820;SDS011;42702;50.178;20.992;2022-07-17T03:42:28;8.10;;;4.40;;
56820;SDS011;42702;50.178;20.992;2022-07-17T03:44:57;7.10;;;4.20;;
56820;SDS011;42702;50.178;20.992;2022-07-17T03:47:25;7.00;;;3.10;;
56820;SDS011;42702;50.178;20.992;2022-07-17T03:49:53;5.60;;;3.50;;
56820;SDS011;42702;50.178;20.992;2022-07-17T03:52:21;4.50;;;3.30;;
56820;SDS011;42702;50.178;20.992;2022-07-17T03:54:50;10.70;;;4.50;;
56820;SDS011;42702;50.178;20.992;2022-07-17T03:57:18;8.40;;;5.00;;
56820;SDS011;42702;50.178;20.992;2022-07-17T03:59:46;8.80;;;4.30;;
56820;SDS011;42702;50.178;20.992;2022-07-17T04:02:14;7.30;;;4.90;;
56820;SDS011;42702;50.178;20.992;2022-07-17T04:04:42;6.90;;;3.50;;
56820;SDS011;42702;50.178;20.992;2022-07-17T04:07:11;5.70;;;4.00;;
56820;SDS011;42702;50.178;20.992;2022-07-17T04:09:55;7.50;;;4.00;;
56820;SDS011;42702;50.178;20.992;2022-07-17T04:12:25;8.40;;;5.00;;
56820;SDS011;42702;50.178;20.992;2022-07-17T04:14:54;9.80;;;4.70;;
56820;SDS011;42702;50.178;20.992;2022-07-17T04:17:23;7.10;;;4.20;;
56820;SDS011;42702;50.178;20.992;2022-07-17T04:19:52;6.50;;;4.40;;
56820;SDS011;42702;50.178;20.992;2022-07-17T04:22:20;8.10;;;4.90;;
56820;SDS011;42702;50.178;20.992;2022-07-17T04:24:48;8.90;;;4.80;;
56820;SDS011;42702;50.178;20.992;2022-07-17T04:27:17;8.00;;;4.60;;
56820;SDS011;42702;50.178;20.992;2022-07-17T04:29:45;7.60;;;4.50;;
56820;SDS011;42702;50.178;20.992;2022-07-17T04:32:13;9.10;;;4.30;;
56820;SDS011;42702;50.178;20.992;2022-07-17T04:34:41;10.50;;;5.00;;
56820;SDS011;42702;50.178;20.992;2022-07-17T04:37:10;9.00;;;4.60;;
56820;SDS011;42702;50.178;20.992;2022-07-17T04:39:38;7.50;;;4.50;;
56820;SDS011;42702;50.178;20.992;2022-07-17T04:42:06;9.60;;;4.10;;
56820;SDS011;42702;50.178;20.992;2022-07-17T04:44:34;6.50;;;3.90;;
56820;SDS011;42702;50.178;20.992;2022-07-17T04:47:04;5.90;;;3.90;;
56820;SDS011;42702;50.178;20.992;2022-07-17T04:49:32;6.00;;;3.70;;
56820;SDS011;42702;50.178;20.992;2022-07-17T04:52:00;6.00;;;4.10;;
56820;SDS011;42702;50.178;20.992;2022-07-17T04:54:28;6.90;;;3.60;;
56820;SDS011;42702;50.178;20.992;2022-07-17T04:56:57;9.30;;;3.50;;
56820;SDS011;42702;50.178;20.992;2022-07-17T04:59:25;8.30;;;3.30;;
56820;SDS011;42702;50.178;20.992;2022-07-17T05:01:53;6.10;;;3.90;;
56820;SDS011;42702;50.178;20.992;2022-07-17T05:04:22;8.60;;;3.70;;
56820;SDS011;42702;50.178;20.992;2022-07-17T05:06:55;6.40;;;3.30;;
56820;SDS011;42702;50.178;20.992;2022-07-17T05:09:23;5.40;;;3.40;;
56820;SDS011;42702;50.178;20.992;2022-07-17T05:11:51;5.90;;;2.80;;
56820;SDS011;42702;50.178;20.992;2022-07-17T05:14:20;8.80;;;3.30;;
56820;SDS011;42702;50.178;20.992;2022-07-17T05:16:48;6.40;;;3.00;;
56820;SDS011;42702;50.178;20.992;2022-07-17T05:19:16;3.70;;;2.70;;
56820;SDS011;42702;50.178;20.992;2022-07-17T05:21:45;6.30;;;2.70;;
56820;SDS011;42702;50.178;20.992;2022-07-17T05:24:13;4.80;;;2.70;;
56820;SDS011;42702;50.178;20.992;2022-07-17T05:26:41;4.30;;;2.20;;
56820;SDS011;42702;50.178;20.992;2022-07-17T05:29:10;9.40;;;2.80;;
56820;SDS011;42702;50.178;20.992;2022-07-17T05:31:38;4.10;;;2.20;;
56820;SDS011;42702;50.178;20.992;2022-07-17T05:34:06;5.50;;;2.40;;
56820;SDS011;42702;50.178;20.992;2022-07-17T05:36:34;5.80;;;2.20;;
56820;SDS011;42702;50.178;20.992;2022-07-17T05:39:03;6.00;;;2.10;;
56820;SDS011;42702;50.178;20.992;2022-07-17T05:41:31;2.10;;;1.90;;
56820;SDS011;42702;50.178;20.992;2022-07-17T05:43:59;5.40;;;2.00;;
56820;SDS011;42702;50.178;20.992;2022-07-17T05:46:28;4.70;;;1.90;;
56820;SDS011;42702;50.178;20.992;2022-07-17T05:48:56;2.90;;;1.70;;
56820;SDS011;42702;50.178;20.992;2022-07-17T05:51:25;4.20;;;1.70;;
56820;SDS011;42702;50.178;20.992;2022-07-17T05:53:53;5.60;;;2.10;;
56820;SDS011;42702;50.178;20.992;2022-07-17T05:56:21;3.80;;;1.90;;
56820;SDS011;42702;50.178;20.992;2022-07-17T05:58:50;4.40;;;1.70;;
56820;SDS011;42702;50.178;20.992;2022-07-17T06:01:18;2.80;;;1.80;;
56820;SDS011;42702;50.178;20.992;2022-07-17T06:03:47;6.10;;;1.80;;
56820;SDS011;42702;50.178;20.992;2022-07-17T06:06:15;5.10;;;1.70;;
56820;SDS011;42702;50.178;20.992;2022-07-17T06:08:44;6.90;;;2.10;;
56820;SDS011;42702;50.178;20.992;2022-07-17T06:11:12;5.80;;;1.80;;
56820;SDS011;42702;50.178;20.992;2022-07-17T06:13:40;3.40;;;1.80;;
56820;SDS011;42702;50.178;20.992;2022-07-17T06:16:08;4.50;;;1.20;;
56820;SDS011;42702;50.178;20.992;2022-07-17T06:18:37;1.60;;;1.10;;
56820;SDS011;42702;50.178;20.992;2022-07-17T06:21:06;3.60;;;1.40;;
56820;SDS011;42702;50.178;20.992;2022-07-17T06:23:34;3.80;;;1.30;;
56820;SDS011;42702;50.178;20.992;2022-07-17T06:26:03;5.00;;;1.60;;
56820;SDS011;42702;50.178;20.992;2022-07-17T06:28:31;3.50;;;1.50;;
56820;SDS011;42702;50.178;20.992;2022-07-17T06:30:59;4.50;;;1.60;;
56820;SDS011;42702;50.178;20.992;2022-07-17T06:33:28;3.30;;;1.60;;
56820;SDS011;42702;50.178;20.992;2022-07-17T06:35:56;2.80;;;1.50;;
56820;SDS011;42702;50.178;20.992;2022-07-17T06:38:24;6.10;;;1.50;;
56820;SDS011;42702;50.178;20.992;2022-07-17T06:40:52;5.10;;;1.30;;
56820;SDS011;42702;50.178;20.992;2022-07-17T06:43:20;5.90;;;2.10;;
56820;SDS011;42702;50.178;20.992;2022-07-17T06:45:50;4.70;;;1.60;;
56820;SDS011;42702;50.178;20.992;2022-07-17T06:50:50;3.20;;;1.50;;
56820;SDS011;42702;50.178;20.992;2022-07-17T06:53:18;5.50;;;1.60;;
56820;SDS011;42702;50.178;20.992;2022-07-17T06:55:47;2.20;;;1.40;;
56820;SDS011;42702;50.178;20.992;2022-07-17T06:58:15;3.50;;;1.50;;
56820;SDS011;42702;50.178;20.992;2022-07-17T07:00:43;2.80;;;1.10;;
56820;SDS011;42702;50.178;20.992;2022-07-17T07:03:11;4.30;;;1.90;;
56820;SDS011;42702;50.178;20.992;2022-07-17T07:05:39;2.00;;;1.60;;
56820;SDS011;42702;50.178;20.992;2022-07-17T07:08:07;4.70;;;1.40;;
56820;SDS011;42702;50.178;20.992;2022-07-17T07:10:36;2.90;;;1.50;;
56820;SDS011;42702;50.178;20.992;2022-07-17T07:13:05;3.90;;;1.20;;
56820;SDS011;42702;50.178;20.992;2022-07-17T07:15:33;3.40;;;1.60;;
56820;SDS011;42702;50.178;20.992;2022-07-17T07:18:02;2.70;;;1.20;;
56820;SDS011;42702;50.178;20.992;2022-07-17T07:20:30;2.60;;;1.40;;
56820;SDS011;42702;50.178;20.992;2022-07-17T07:22:58;2.30;;;1.40;;
56820;SDS011;42702;50.178;20.992;2022-07-17T07:25:33;5.00;;;1.50;;
56820;SDS011;42702;50.178;20.992;2022-07-17T07:28:03;5.60;;;1.20;;
56820;SDS011;42702;50.178;20.992;2022-07-17T07:30:31;5.20;;;1.50;;
56820;SDS011;42702;50.178;20.992;2022-07-17T07:33:00;4.00;;;1.20;;
56820;SDS011;42702;50.178;20.992;2022-07-17T07:35:28;4.50;;;1.40;;
56820;SDS011;42702;50.178;20.992;2022-07-17T07:37:56;4.20;;;1.30;;
56820;SDS011;42702;50.178;20.992;2022-07-17T07:40:24;9.00;;;1.30;;
56820;SDS011;42702;50.178;20.992;2022-07-17T07:42:52;3.10;;;1.20;;
56820;SDS011;42702;50.178;20.992;2022-07-17T07:45:21;3.90;;;1.10;;
56820;SDS011;42702;50.178;20.992;2022-07-17T07:47:49;2.60;;;1.10;;
56820;SDS011;42702;50.178;20.992;2022-07-17T07:50:18;5.00;;;1.20;;
56820;SDS011;42702;50.178;20.992;2022-07-17T07:52:49;6.60;;;1.20;;
56820;SDS011;42702;50.178;20.992;2022-07-17T07:55:18;1.70;;;1.00;;
56820;SDS011;42702;50.178;20.992;2022-07-17T07:57:48;3.90;;;1.10;;
56820;SDS011;42702;50.178;20.992;2022-07-17T08:00:17;2.80;;;1.00;;
56820;SDS011;42702;50.178;20.992;2022-07-17T08:02:45;4.80;;;1.20;;
56820;SDS011;42702;50.178;20.992;2022-07-17T08:05:14;1.50;;;1.00;;
56820;SDS011;42702;50.178;20.992;2022-07-17T08:07:42;3.60;;;1.10;;
56820;SDS011;42702;50.178;20.992;2022-07-17T08:10:10;2.30;;;1.00;;
56820;SDS011;42702;50.178;20.992;2022-07-17T08:12:38;2.20;;;1.10;;
56820;SDS011;42702;50.178;20.992;2022-07-17T08:15:14;2.50;;;0.80;;
56820;SDS011;42702;50.178;20.992;2022-07-17T08:17:44;2.10;;;1.10;;
56820;SDS011;42702;50.178;20.992;2022-07-17T08:20:13;2.30;;;1.00;;
56820;SDS011;42702;50.178;20.992;2022-07-17T08:22:43;2.40;;;0.80;;
56820;SDS011;42702;50.178;20.992;2022-07-17T08:25:31;1.90;;;0.90;;
56820;SDS011;42702;50.178;20.992;2022-07-17T08:28:03;2.00;;;1.00;;
56820;SDS011;42702;50.178;20.992;2022-07-17T08:30:33;2.90;;;1.00;;
56820;SDS011;42702;50.178;20.992;2022-07-17T08:33:03;2.30;;;1.00;;
56820;SDS011;42702;50.178;20.992;2022-07-17T08:35:33;0.80;;;0.60;;
56820;SDS011;42702;50.178;20.992;2022-07-17T08:38:02;1.20;;;1.00;;
56820;SDS011;42702;50.178;20.992;2022-07-17T08:40:32;0.90;;;0.70;;
56820;SDS011;42702;50.178;20.992;2022-07-17T08:43:03;1.40;;;0.80;;
56820;SDS011;42702;50.178;20.992;2022-07-17T08:45:34;3.40;;;1.10;;
56820;SDS011;42702;50.178;20.992;2022-07-17T08:48:02;2.20;;;1.10;;
56820;SDS011;42702;50.178;20.992;2022-07-17T08:50:33;4.90;;;0.90;;
56820;SDS011;42702;50.178;20.992;2022-07-17T08:53:02;1.80;;;0.90;;
56820;SDS011;42702;50.178;20.992;2022-07-17T08:55:31;2.40;;;0.90;;
56820;SDS011;42702;50.178;20.992;2022-07-17T08:58:00;2.10;;;1.00;;
56820;SDS011;42702;50.178;20.992;2022-07-17T09:00:28;1.90;;;0.80;;
56820;SDS011;42702;50.178;20.992;2022-07-17T09:02:57;3.00;;;0.80;;
56820;SDS011;42702;50.178;20.992;2022-07-17T09:05:38;2.30;;;1.10;;
56820;SDS011;42702;50.178;20.992;2022-07-17T09:08:08;0.60;;;0.50;;
56820;SDS011;42702;50.178;20.992;2022-07-17T09:10:44;1.40;;;0.90;;
56820;SDS011;42702;50.178;20.992;2022-07-17T09:13:15;3.50;;;1.00;;
56820;SDS011;42702;50.178;20.992;2022-07-17T09:16:08;1.40;;;0.70;;
56820;SDS011;42702;50.178;20.992;2022-07-17T09:18:49;1.60;;;1.00;;
56820;SDS011;42702;50.178;20.992;2022-07-17T09:21:23;0.90;;;0.80;;
56820;SDS011;42702;50.178;20.992;2022-07-17T09:24:02;1.30;;;0.70;;
56820;SDS011;42702;50.178;20.992;2022-07-17T09:26:35;1.00;;;0.70;;
56820;SDS011;42702;50.178;20.992;2022-07-17T09:29:10;2.20;;;0.70;;
56820;SDS011;42702;50.178;20.992;2022-07-17T09:31:42;2.60;;;1.00;;
56820;SDS011;42702;50.178;20.992;2022-07-17T09:34:17;2.10;;;0.90;;
56820;SDS011;42702;50.178;20.992;2022-07-17T09:36:57;2.80;;;0.70;;
56820;SDS011;42702;50.178;20.992;2022-07-17T09:39:34;2.20;;;0.80;;
56820;SDS011;42702;50.178;20.992;2022-07-17T09:42:04;2.40;;;0.80;;
56820;SDS011;42702;50.178;20.992;2022-07-17T09:44:32;2.40;;;1.00;;
56820;SDS011;42702;50.178;20.992;2022-07-17T09:47:02;1.90;;;0.70;;
56820;SDS011;42702;50.178;20.992;2022-07-17T09:49:31;1.10;;;0.60;;
56820;SDS011;42702;50.178;20.992;2022-07-17T09:52:00;0.80;;;0.50;;
56820;SDS011;42702;50.178;20.992;2022-07-17T09:54:30;0.70;;;0.50;;
56820;SDS011;42702;50.178;20.992;2022-07-17T09:57:00;0.60;;;0.50;;
56820;SDS011;42702;50.178;20.992;2022-07-17T09:59:29;0.50;;;0.50;;
56820;SDS011;42702;50.178;20.992;2022-07-17T10:02:03;0.90;;;0.60;;
56820;SDS011;42702;50.178;20.992;2022-07-17T10:04:31;1.60;;;0.70;;
56820;SDS011;42702;50.178;20.992;2022-07-17T10:06:59;1.40;;;0.60;;
56820;SDS011;42702;50.178;20.992;2022-07-17T10:09:28;1.40;;;0.90;;
56820;SDS011;42702;50.178;20.992;2022-07-17T10:11:57;2.00;;;0.80;;
56820;SDS011;42702;50.178;20.992;2022-07-17T10:14:27;1.50;;;0.60;;
56820;SDS011;42702;50.178;20.992;2022-07-17T10:17:05;1.30;;;0.60;;
56820;SDS011;42702;50.178;20.992;2022-07-17T10:19:42;1.20;;;0.80;;
56820;SDS011;42702;50.178;20.992;2022-07-17T10:22:22;3.50;;;1.10;;
56820;SDS011;42702;50.178;20.992;2022-07-17T10:24:53;1.00;;;0.70;;
56820;SDS011;42702;50.178;20.992;2022-07-17T10:29:59;2.90;;;0.70;;
56820;SDS011;42702;50.178;20.992;2022-07-17T10:32:29;1.30;;;0.90;;
56820;SDS011;42702;50.178;20.992;2022-07-17T10:34:59;4.60;;;0.80;;
56820;SDS011;42702;50.178;20.992;2022-07-17T10:48:04;0.90;;;0.60;;
56820;SDS011;42702;50.178;20.992;2022-07-17T10:50:38;2.00;;;0.80;;
56820;SDS011;42702;50.178;20.992;2022-07-17T10:53:10;0.80;;;0.80;;
56820;SDS011;42702;50.178;20.992;2022-07-17T10:55:55;1.10;;;0.80;;
56820;SDS011;42702;50.178;20.992;2022-07-17T10:58:30;1.40;;;0.80;;
56820;SDS011;42702;50.178;20.992;2022-07-17T11:03:54;2.30;;;0.80;;
56820;SDS011;42702;50.178;20.992;2022-07-17T11:06:30;3.00;;;1.20;;
56820;SDS011;42702;50.178;20.992;2022-07-17T11:09:02;1.20;;;0.90;;
56820;SDS011;42702;50.178;20.992;2022-07-17T11:14:13;1.70;;;0.90;;
56820;SDS011;42702;50.178;20.992;2022-07-17T11:16:57;1.40;;;1.20;;
56820;SDS011;42702;50.178;20.992;2022-07-17T11:19:32;2.90;;;0.90;;
56820;SDS011;42702;50.178;20.992;2022-07-17T11:22:03;2.20;;;1.10;;
56820;SDS011;42702;50.178;20.992;2022-07-17T11:24:41;2.70;;;1.00;;
56820;SDS011;42702;50.178;20.992;2022-07-17T11:27:12;1.20;;;0.90;;
56820;SDS011;42702;50.178;20.992;2022-07-17T11:29:52;1.00;;;0.90;;
56820;SDS011;42702;50.178;20.992;2022-07-17T11:32:22;0.80;;;0.70;;
56820;SDS011;42702;50.178;20.992;2022-07-17T11:34:51;0.80;;;0.70;;
56820;SDS011;42702;50.178;20.992;2022-07-17T11:37:20;0.80;;;0.80;;
56820;SDS011;42702;50.178;20.992;2022-07-17T11:39:49;0.80;;;0.70;;
56820;SDS011;42702;50.178;20.992;2022-07-17T11:42:19;0.60;;;0.60;;
56820;SDS011;42702;50.178;20.992;2022-07-17T11:44:49;1.10;;;0.50;;
56820;SDS011;42702;50.178;20.992;2022-07-17T11:47:20;0.90;;;0.70;;
56820;SDS011;42702;50.178;20.992;2022-07-17T11:49:50;1.40;;;0.80;;
56820;SDS011;42702;50.178;20.992;2022-07-17T11:52:19;1.20;;;0.90;;
56820;SDS011;42702;50.178;20.992;2022-07-17T11:54:54;0.80;;;0.60;;
56820;SDS011;42702;50.178;20.992;2022-07-17T11:57:25;1.10;;;0.70;;
56820;SDS011;42702;50.178;20.992;2022-07-17T12:00:05;1.70;;;0.70;;
56820;SDS011;42702;50.178;20.992;2022-07-17T12:02:34;1.30;;;0.70;;
56820;SDS011;42702;50.178;20.992;2022-07-17T12:05:03;1.20;;;0.90;;
56820;SDS011;42702;50.178;20.992;2022-07-17T12:07:39;1.80;;;0.80;;
56820;SDS011;42702;50.178;20.992;2022-07-17T12:10:18;1.20;;;0.60;;
56820;SDS011;42702;50.178;20.992;2022-07-17T12:12:57;5.40;;;0.80;;
56820;SDS011;42702;50.178;20.992;2022-07-17T12:15:35;1.10;;;0.70;;
56820;SDS011;42702;50.178;20.992;2022-07-17T12:18:04;1.20;;;0.60;;
56820;SDS011;42702;50.178;20.992;2022-07-17T12:20:41;1.50;;;0.60;;
56820;SDS011;42702;50.178;20.992;2022-07-17T12:23:27;1.30;;;0.80;;
56820;SDS011;42702;50.178;20.992;2022-07-17T12:26:12;3.80;;;0.70;;
56820;SDS011;42702;50.178;20.992;2022-07-17T12:28:46;1.10;;;0.80;;
56820;SDS011;42702;50.178;20.992;2022-07-17T12:31:15;2.50;;;0.80;;
56820;SDS011;42702;50.178;20.992;2022-07-17T12:33:43;1.50;;;0.90;;
56820;SDS011;42702;50.178;20.992;2022-07-17T12:36:12;3.60;;;0.70;;
56820;SDS011;42702;50.178;20.992;2022-07-17T12:38:40;2.50;;;0.90;;
56820;SDS011;42702;50.178;20.992;2022-07-17T12:41:08;2.40;;;1.10;;
56820;SDS011;42702;50.178;20.992;2022-07-17T12:43:37;1.10;;;0.60;;
56820;SDS011;42702;50.178;20.992;2022-07-17T12:46:05;0.60;;;0.60;;
56820;SDS011;42702;50.178;20.992;2022-07-17T12:48:43;1.20;;;0.70;;
56820;SDS011;42702;50.178;20.992;2022-07-17T12:51:12;4.40;;;0.90;;
56820;SDS011;42702;50.178;20.992;2022-07-17T12:53:41;1.10;;;0.50;;
56820;SDS011;42702;50.178;20.992;2022-07-17T12:56:11;1.90;;;0.60;;
56820;SDS011;42702;50.178;20.992;2022-07-17T12:58:39;1.70;;;0.80;;
56820;SDS011;42702;50.178;20.992;2022-07-17T13:01:07;2.70;;;0.80;;
56820;SDS011;42702;50.178;20.992;2022-07-17T13:03:36;0.90;;;0.70;;
56820;SDS011;42702;50.178;20.992;2022-07-17T13:06:04;2.20;;;0.70;;
56820;SDS011;42702;50.178;20.992;2022-07-17T13:08:33;1.50;;;0.80;;
56820;SDS011;42702;50.178;20.992;2022-07-17T13:11:01;1.30;;;0.50;;
56820;SDS011;42702;50.178;20.992;2022-07-17T13:13:37;2.00;;;0.90;;
56820;SDS011;42702;50.178;20.992;2022-07-17T13:16:11;1.30;;;0.60;;
56820;SDS011;42702;50.178;20.992;2022-07-17T13:18:41;2.10;;;0.60;;
56820;SDS011;42702;50.178;20.992;2022-07-17T13:21:10;1.30;;;0.70;;
56820;SDS011;42702;50.178;20.992;2022-07-17T13:23:40;2.80;;;0.70;;
56820;SDS011;42702;50.178;20.992;2022-07-17T13:26:08;1.50;;;0.60;;
56820;SDS011;42702;50.178;20.992;2022-07-17T13:28:44;1.70;;;0.70;;
56820;SDS011;42702;50.178;20.992;2022-07-17T13:31:13;1.50;;;0.90;;
56820;SDS011;42702;50.178;20.992;2022-07-17T13:33:42;2.20;;;1.00;;
56820;SDS011;42702;50.178;20.992;2022-07-17T13:36:11;4.00;;;0.70;;
56820;SDS011;42702;50.178;20.992;2022-07-17T13:38:39;1.80;;;0.60;;
56820;SDS011;42702;50.178;20.992;2022-07-17T13:41:09;3.90;;;0.90;;
56820;SDS011;42702;50.178;20.992;2022-07-17T13:43:38;1.40;;;0.70;;
56820;SDS011;42702;50.178;20.992;2022-07-17T13:46:06;2.20;;;0.90;;
56820;SDS011;42702;50.178;20.992;2022-07-17T13:48:35;5.60;;;0.80;;
56820;SDS011;42702;50.178;20.992;2022-07-17T13:51:03;3.30;;;0.80;;
56820;SDS011;42702;50.178;20.992;2022-07-17T13:53:33;1.00;;;0.70;;
56820;SDS011;42702;50.178;20.992;2022-07-17T13:56:04;1.50;;;0.90;;
56820;SDS011;42702;50.178;20.992;2022-07-17T13:58:33;1.10;;;0.80;;
56820;SDS011;42702;50.178;20.992;2022-07-17T14:01:01;1.60;;;0.80;;
56820;SDS011;42702;50.178;20.992;2022-07-17T14:03:30;1.40;;;0.70;;
56820;SDS011;42702;50.178;20.992;2022-07-17T14:05:59;2.30;;;0.90;;
56820;SDS011;42702;50.178;20.992;2022-07-17T14:08:27;1.40;;;0.60;;
56820;SDS011;42702;50.178;20.992;2022-07-17T14:10:56;1.40;;;0.80;;
56820;SDS011;42702;50.178;20.992;2022-07-17T14:13:25;2.20;;;1.00;;
56820;SDS011;42702;50.178;20.992;2022-07-17T14:18:22;1.70;;;0.80;;
56820;SDS011;42702;50.178;20.992;2022-07-17T14:20:50;0.50;;;0.50;;
56820;SDS011;42702;50.178;20.992;2022-07-17T14:23:18;1.70;;;0.90;;
56820;SDS011;42702;50.178;20.992;2022-07-17T14:25:47;1.80;;;0.70;;
56820;SDS011;42702;50.178;20.992;2022-07-17T14:28:15;1.30;;;0.70;;
56820;SDS011;42702;50.178;20.992;2022-07-17T14:30:43;2.60;;;0.80;;
56820;SDS011;42702;50.178;20.992;2022-07-17T14:33:12;2.90;;;0.70;;
56820;SDS011;42702;50.178;20.992;2022-07-17T14:35:40;1.90;;;0.90;;
56820;SDS011;42702;50.178;20.992;2022-07-17T14:38:08;1.30;;;0.70;;
56820;SDS011;42702;50.178;20.992;2022-07-17T14:40:37;1.00;;;0.70;;
56820;SDS011;42702;50.178;20.992;2022-07-17T14:43:05;1.40;;;0.60;;
56820;SDS011;42702;50.178;20.992;2022-07-17T14:45:34;3.00;;;0.80;;
56820;SDS011;42702;50.178;20.992;2022-07-17T14:48:02;1.20;;;0.80;;
56820;SDS011;42702;50.178;20.992;2022-07-17T14:50:31;0.80;;;0.60;;
56820;SDS011;42702;50.178;20.992;2022-07-17T14:53:00;1.10;;;0.70;;
56820;SDS011;42702;50.178;20.992;2022-07-17T14:55:28;0.80;;;0.70;;
56820;SDS011;42702;50.178;20.992;2022-07-17T14:57:56;2.00;;;0.80;;
56820;SDS011;42702;50.178;20.992;2022-07-17T15:00:25;1.90;;;1.00;;
56820;SDS011;42702;50.178;20.992;2022-07-17T15:02:54;1.90;;;0.80;;
56820;SDS011;42702;50.178;20.992;2022-07-17T15:05:22;1.80;;;0.60;;
56820;SDS011;42702;50.178;20.992;2022-07-17T15:07:51;2.90;;;0.90;;
56820;SDS011;42702;50.178;20.992;2022-07-17T15:10:19;4.10;;;0.80;;
56820;SDS011;42702;50.178;20.992;2022-07-17T15:12:47;1.10;;;0.80;;
56820;SDS011;42702;50.178;20.992;2022-07-17T15:15:16;2.10;;;0.80;;